sensor_id;sensor_type;location;lat;lon;timestamp;temperature;humidity
50955;DHT22;36966;48.064;-0.792;2022-12-07T00:01:22;15.70;43.20
50955;DHT22;36966;48.064;-0.792;2022-12-07T00:03:44;15.70;43.20
50955;DHT22;36966;48.064;-0.792;2022-12-07T00:06:05;15.70;43.10
50955;DHT22;36966;48.064;-0.792;2022-12-07T00:08:25;15.70;43.10
50955;DHT22;36966;48.064;-0.792;2022-12-07T00:10:44;15.60;43.10
50955;DHT22;36966;48.064;-0.792;2022-12-07T00:13:03;15.60;43.10
50955;DHT22;36966;48.064;-0.792;2022-12-07T00:15:22;15.60;43.10
50955;DHT22;36966;48.064;-0.792;2022-12-07T00:17:41;15.60;43.10
50955;DHT22;36966;48.064;-0.792;2022-12-07T00:20:00;15.60;43.10
50955;DHT22;36966;48.064;-0.792;2022-12-07T00:22:19;15.60;43.00
50955;DHT22;36966;48.064;-0.792;2022-12-07T00:24:38;15.60;43.00
50955;DHT22;36966;48.064;-0.792;2022-12-07T00:26:57;15.60;43.00
50955;DHT22;36966;48.064;-0.792;2022-12-07T00:29:21;15.60;43.00
50955;DHT22;36966;48.064;-0.792;2022-12-07T00:31:40;15.60;43.00
50955;DHT22;36966;48.064;-0.792;2022-12-07T00:33:59;15.60;43.00
50955;DHT22;36966;48.064;-0.792;2022-12-07T00:36:21;15.60;43.00
50955;DHT22;36966;48.064;-0.792;2022-12-07T00:38:41;15.60;43.00
50955;DHT22;36966;48.064;-0.792;2022-12-07T00:41:03;15.60;43.00
50955;DHT22;36966;48.064;-0.792;2022-12-07T00:43:22;15.50;43.00
50955;DHT22;36966;48.064;-0.792;2022-12-07T00:45:41;15.60;43.00
50955;DHT22;36966;48.064;-0.792;2022-12-07T00:48:01;15.60;43.00
50955;DHT22;36966;48.064;-0.792;2022-12-07T00:50:20;15.60;42.90
50955;DHT22;36966;48.064;-0.792;2022-12-07T00:52:39;15.60;42.90
50955;DHT22;36966;48.064;-0.792;2022-12-07T00:54:58;15.50;42.80
50955;DHT22;36966;48.064;-0.792;2022-12-07T00:57:17;15.50;42.80
50955;DHT22;36966;48.064;-0.792;2022-12-07T00:59:36;15.60;42.80
50955;DHT22;36966;48.064;-0.792;2022-12-07T01:01:55;15.50;42.80
50955;DHT22;36966;48.064;-0.792;2022-12-07T01:04:14;15.50;42.80
50955;DHT22;36966;48.064;-0.792;2022-12-07T01:06:33;15.50;42.80
50955;DHT22;36966;48.064;-0.792;2022-12-07T01:08:54;15.50;42.80
50955;DHT22;36966;48.064;-0.792;2022-12-07T01:11:16;15.50;42.80
50955;DHT22;36966;48.064;-0.792;2022-12-07T01:13:35;15.50;42.80
50955;DHT22;36966;48.064;-0.792;2022-12-07T01:15:58;15.50;42.80
50955;DHT22;36966;48.064;-0.792;2022-12-07T01:18:18;15.50;42.80
50955;DHT22;36966;48.064;-0.792;2022-12-07T01:20:38;15.50;42.70
50955;DHT22;36966;48.064;-0.792;2022-12-07T01:22:57;15.50;42.70
50955;DHT22;36966;48.064;-0.792;2022-12-07T01:25:16;15.50;42.70
50955;DHT22;36966;48.064;-0.792;2022-12-07T01:27:36;15.50;42.70
50955;DHT22;36966;48.064;-0.792;2022-12-07T01:29:56;15.50;42.70
50955;DHT22;36966;48.064;-0.792;2022-12-07T01:32:15;15.50;42.60
50955;DHT22;36966;48.064;-0.792;2022-12-07T01:34:34;15.50;42.70
50955;DHT22;36966;48.064;-0.792;2022-12-07T01:36:54;15.50;42.70
50955;DHT22;36966;48.064;-0.792;2022-12-07T01:39:13;15.50;42.60
50955;DHT22;36966;48.064;-0.792;2022-12-07T01:41:34;15.40;42.60
50955;DHT22;36966;48.064;-0.792;2022-12-07T01:46:31;15.50;42.60
50955;DHT22;36966;48.064;-0.792;2022-12-07T01:48:50;15.50;42.60
50955;DHT22;36966;48.064;-0.792;2022-12-07T01:51:11;15.50;42.60
50955;DHT22;36966;48.064;-0.792;2022-12-07T01:53:34;15.40;42.50
50955;DHT22;36966;48.064;-0.792;2022-12-07T01:55:56;15.50;42.50
50955;DHT22;36966;48.064;-0.792;2022-12-07T01:58:16;15.40;42.50
50955;DHT22;36966;48.064;-0.792;2022-12-07T02:00:36;15.40;42.50
50955;DHT22;36966;48.064;-0.792;2022-12-07T02:03:03;15.40;42.50
50955;DHT22;36966;48.064;-0.792;2022-12-07T02:05:25;15.40;42.50
50955;DHT22;36966;48.064;-0.792;2022-12-07T02:07:47;15.40;42.50
50955;DHT22;36966;48.064;-0.792;2022-12-07T02:10:17;15.40;42.50
50955;DHT22;36966;48.064;-0.792;2022-12-07T02:12:36;15.40;42.50
50955;DHT22;36966;48.064;-0.792;2022-12-07T02:14:56;15.40;42.50
50955;DHT22;36966;48.064;-0.792;2022-12-07T02:26:08;15.40;42.40
50955;DHT22;36966;48.064;-0.792;2022-12-07T02:31:26;15.40;42.40
50955;DHT22;36966;48.064;-0.792;2022-12-07T02:33:54;15.40;42.40
50955;DHT22;36966;48.064;-0.792;2022-12-07T02:36:28;15.40;42.40
50955;DHT22;36966;48.064;-0.792;2022-12-07T02:39:08;15.40;42.40
50955;DHT22;36966;48.064;-0.792;2022-12-07T02:41:39;15.30;42.40
50955;DHT22;36966;48.064;-0.792;2022-12-07T02:44:02;15.30;42.40
50955;DHT22;36966;48.064;-0.792;2022-12-07T02:46:26;15.30;42.40
50955;DHT22;36966;48.064;-0.792;2022-12-07T02:48:47;15.40;42.40
50955;DHT22;36966;48.064;-0.792;2022-12-07T02:51:08;15.40;42.40
50955;DHT22;36966;48.064;-0.792;2022-12-07T02:53:45;15.30;42.30
50955;DHT22;36966;48.064;-0.792;2022-12-07T03:07:17;15.30;42.40
50955;DHT22;36966;48.064;-0.792;2022-12-07T03:09:47;15.30;42.50
50955;DHT22;36966;48.064;-0.792;2022-12-07T03:12:14;15.30;42.50
50955;DHT22;36966;48.064;-0.792;2022-12-07T03:14:52;15.30;42.40
50955;DHT22;36966;48.064;-0.792;2022-12-07T03:17:18;15.30;42.30
50955;DHT22;36966;48.064;-0.792;2022-12-07T03:19:39;15.30;42.30
50955;DHT22;36966;48.064;-0.792;2022-12-07T03:22:13;15.30;42.30
50955;DHT22;36966;48.064;-0.792;2022-12-07T03:24:42;15.30;42.30
50955;DHT22;36966;48.064;-0.792;2022-12-07T03:27:19;15.30;42.30
50955;DHT22;36966;48.064;-0.792;2022-12-07T03:29:45;15.30;42.20
50955;DHT22;36966;48.064;-0.792;2022-12-07T03:32:14;15.30;42.20
50955;DHT22;36966;48.064;-0.792;2022-12-07T03:34:47;15.30;42.30
50955;DHT22;36966;48.064;-0.792;2022-12-07T03:37:14;15.30;42.30
50955;DHT22;36966;48.064;-0.792;2022-12-07T03:39:46;15.30;42.30
50955;DHT22;36966;48.064;-0.792;2022-12-07T03:42:10;15.30;42.20
50955;DHT22;36966;48.064;-0.792;2022-12-07T03:44:31;15.30;42.20
50955;DHT22;36966;48.064;-0.792;2022-12-07T03:47:06;15.30;42.20
50955;DHT22;36966;48.064;-0.792;2022-12-07T03:52:28;15.30;42.10
50955;DHT22;36966;48.064;-0.792;2022-12-07T03:57:33;15.30;42.10
50955;DHT22;36966;48.064;-0.792;2022-12-07T03:59:54;15.30;42.10
50955;DHT22;36966;48.064;-0.792;2022-12-07T04:02:15;15.30;42.20
50955;DHT22;36966;48.064;-0.792;2022-12-07T04:04:34;15.30;42.20
50955;DHT22;36966;48.064;-0.792;2022-12-07T04:06:54;15.30;42.20
50955;DHT22;36966;48.064;-0.792;2022-12-07T04:09:13;15.30;42.30
50955;DHT22;36966;48.064;-0.792;2022-12-07T04:11:33;15.20;42.20
50955;DHT22;36966;48.064;-0.792;2022-12-07T04:13:52;15.20;42.20
50955;DHT22;36966;48.064;-0.792;2022-12-07T04:16:30;15.20;42.20
50955;DHT22;36966;48.064;-0.792;2022-12-07T04:18:49;15.30;42.20
50955;DHT22;36966;48.064;-0.792;2022-12-07T04:21:08;15.20;42.20
50955;DHT22;36966;48.064;-0.792;2022-12-07T04:23:27;15.20;42.20
50955;DHT22;36966;48.064;-0.792;2022-12-07T04:25:48;15.20;42.20
50955;DHT22;36966;48.064;-0.792;2022-12-07T04:28:07;15.20;42.30
50955;DHT22;36966;48.064;-0.792;2022-12-07T04:30:26;15.30;42.30
50955;DHT22;36966;48.064;-0.792;2022-12-07T04:32:45;15.20;42.30
50955;DHT22;36966;48.064;-0.792;2022-12-07T04:35:05;15.20;42.30
50955;DHT22;36966;48.064;-0.792;2022-12-07T04:37:24;15.20;42.40
50955;DHT22;36966;48.064;-0.792;2022-12-07T04:39:43;15.20;42.30
50955;DHT22;36966;48.064;-0.792;2022-12-07T04:42:06;15.20;42.40
50955;DHT22;36966;48.064;-0.792;2022-12-07T04:44:26;15.20;42.30
50955;DHT22;36966;48.064;-0.792;2022-12-07T04:46:46;15.20;42.30
50955;DHT22;36966;48.064;-0.792;2022-12-07T04:49:06;15.20;42.30
50955;DHT22;36966;48.064;-0.792;2022-12-07T04:51:27;15.20;42.30
50955;DHT22;36966;48.064;-0.792;2022-12-07T04:53:46;15.20;42.30
50955;DHT22;36966;48.064;-0.792;2022-12-07T04:56:06;15.20;42.30
50955;DHT22;36966;48.064;-0.792;2022-12-07T04:58:25;15.20;42.30
50955;DHT22;36966;48.064;-0.792;2022-12-07T05:00:44;15.20;42.40
50955;DHT22;36966;48.064;-0.792;2022-12-07T05:03:03;15.20;42.40
50955;DHT22;36966;48.064;-0.792;2022-12-07T05:05:23;15.20;42.40
50955;DHT22;36966;48.064;-0.792;2022-12-07T05:07:43;15.20;42.40
50955;DHT22;36966;48.064;-0.792;2022-12-07T05:10:02;15.20;42.40
50955;DHT22;36966;48.064;-0.792;2022-12-07T05:12:21;15.20;42.40
50955;DHT22;36966;48.064;-0.792;2022-12-07T05:14:41;15.20;42.40
50955;DHT22;36966;48.064;-0.792;2022-12-07T05:17:00;15.20;42.40
50955;DHT22;36966;48.064;-0.792;2022-12-07T05:19:19;15.20;42.40
50955;DHT22;36966;48.064;-0.792;2022-12-07T05:21:39;15.20;42.30
50955;DHT22;36966;48.064;-0.792;2022-12-07T05:23:59;15.20;42.30
50955;DHT22;36966;48.064;-0.792;2022-12-07T05:26:19;15.20;42.30
50955;DHT22;36966;48.064;-0.792;2022-12-07T05:28:38;15.20;42.30
50955;DHT22;36966;48.064;-0.792;2022-12-07T05:30:57;15.20;42.40
50955;DHT22;36966;48.064;-0.792;2022-12-07T05:33:16;15.20;42.40
50955;DHT22;36966;48.064;-0.792;2022-12-07T05:35:35;15.20;42.40
50955;DHT22;36966;48.064;-0.792;2022-12-07T05:37:56;15.20;42.40
50955;DHT22;36966;48.064;-0.792;2022-12-07T05:40:17;15.20;42.40
50955;DHT22;36966;48.064;-0.792;2022-12-07T05:42:38;15.20;42.40
50955;DHT22;36966;48.064;-0.792;2022-12-07T05:44:57;15.20;42.50
50955;DHT22;36966;48.064;-0.792;2022-12-07T05:47:16;15.20;42.50
50955;DHT22;36966;48.064;-0.792;2022-12-07T05:49:36;15.20;42.50
50955;DHT22;36966;48.064;-0.792;2022-12-07T05:51:56;15.20;42.40
50955;DHT22;36966;48.064;-0.792;2022-12-07T05:54:15;15.20;42.40
50955;DHT22;36966;48.064;-0.792;2022-12-07T05:56:35;15.20;42.40
50955;DHT22;36966;48.064;-0.792;2022-12-07T05:58:54;15.20;42.40
50955;DHT22;36966;48.064;-0.792;2022-12-07T06:01:32;15.20;42.50
50955;DHT22;36966;48.064;-0.792;2022-12-07T06:03:52;15.20;42.40
50955;DHT22;36966;48.064;-0.792;2022-12-07T06:06:11;15.20;42.50
50955;DHT22;36966;48.064;-0.792;2022-12-07T06:08:30;15.20;42.50
50955;DHT22;36966;48.064;-0.792;2022-12-07T06:10:49;15.20;42.40
50955;DHT22;36966;48.064;-0.792;2022-12-07T06:13:31;15.20;42.50
50955;DHT22;36966;48.064;-0.792;2022-12-07T06:15:50;15.20;42.50
50955;DHT22;36966;48.064;-0.792;2022-12-07T06:18:09;15.10;42.50
50955;DHT22;36966;48.064;-0.792;2022-12-07T06:20:28;15.10;42.50
50955;DHT22;36966;48.064;-0.792;2022-12-07T06:22:47;15.10;42.50
50955;DHT22;36966;48.064;-0.792;2022-12-07T06:25:07;15.20;42.50
50955;DHT22;36966;48.064;-0.792;2022-12-07T06:27:26;15.20;42.50
50955;DHT22;36966;48.064;-0.792;2022-12-07T06:29:45;15.20;42.50
50955;DHT22;36966;48.064;-0.792;2022-12-07T06:32:04;15.10;42.50
50955;DHT22;36966;48.064;-0.792;2022-12-07T06:34:25;15.20;42.50
50955;DHT22;36966;48.064;-0.792;2022-12-07T06:36:45;15.10;42.50
50955;DHT22;36966;48.064;-0.792;2022-12-07T06:39:10;15.10;42.50
50955;DHT22;36966;48.064;-0.792;2022-12-07T06:41:30;15.10;42.50
50955;DHT22;36966;48.064;-0.792;2022-12-07T06:43:49;15.10;42.50
50955;DHT22;36966;48.064;-0.792;2022-12-07T06:46:08;15.20;42.60
50955;DHT22;36966;48.064;-0.792;2022-12-07T06:48:27;15.10;42.60
50955;DHT22;36966;48.064;-0.792;2022-12-07T06:50:47;15.10;42.50
50955;DHT22;36966;48.064;-0.792;2022-12-07T06:53:08;15.10;42.50
50955;DHT22;36966;48.064;-0.792;2022-12-07T06:55:28;15.10;42.50
50955;DHT22;36966;48.064;-0.792;2022-12-07T06:57:48;15.10;42.50
50955;DHT22;36966;48.064;-0.792;2022-12-07T07:00:07;15.10;42.50
50955;DHT22;36966;48.064;-0.792;2022-12-07T07:02:27;15.10;42.60
50955;DHT22;36966;48.064;-0.792;2022-12-07T07:04:46;15.10;42.50
50955;DHT22;36966;48.064;-0.792;2022-12-07T07:07:05;15.10;42.50
50955;DHT22;36966;48.064;-0.792;2022-12-07T07:09:24;15.10;42.60
50955;DHT22;36966;48.064;-0.792;2022-12-07T07:11:43;15.10;42.60
50955;DHT22;36966;48.064;-0.792;2022-12-07T07:14:02;15.10;42.60
50955;DHT22;36966;48.064;-0.792;2022-12-07T07:16:22;15.10;42.60
50955;DHT22;36966;48.064;-0.792;2022-12-07T07:18:42;15.10;42.50
50955;DHT22;36966;48.064;-0.792;2022-12-07T07:21:01;15.10;42.50
50955;DHT22;36966;48.064;-0.792;2022-12-07T07:23:21;15.10;42.50
50955;DHT22;36966;48.064;-0.792;2022-12-07T07:25:40;15.10;42.50
50955;DHT22;36966;48.064;-0.792;2022-12-07T07:28:00;15.10;42.50
50955;DHT22;36966;48.064;-0.792;2022-12-07T07:30:19;15.10;42.50
50955;DHT22;36966;48.064;-0.792;2022-12-07T07:32:39;15.10;42.50
50955;DHT22;36966;48.064;-0.792;2022-12-07T07:34:58;15.10;42.50
50955;DHT22;36966;48.064;-0.792;2022-12-07T07:37:17;15.10;42.50
50955;DHT22;36966;48.064;-0.792;2022-12-07T07:39:36;15.00;42.40
50955;DHT22;36966;48.064;-0.792;2022-12-07T07:41:55;15.10;42.50
50955;DHT22;36966;48.064;-0.792;2022-12-07T07:44:14;15.10;42.50
50955;DHT22;36966;48.064;-0.792;2022-12-07T07:46:33;15.10;42.40
50955;DHT22;36966;48.064;-0.792;2022-12-07T07:48:52;15.10;42.40
50955;DHT22;36966;48.064;-0.792;2022-12-07T07:51:11;15.00;42.30
50955;DHT22;36966;48.064;-0.792;2022-12-07T07:53:30;15.00;42.40
50955;DHT22;36966;48.064;-0.792;2022-12-07T07:55:52;15.10;42.30
50955;DHT22;36966;48.064;-0.792;2022-12-07T07:58:11;15.00;42.30
50955;DHT22;36966;48.064;-0.792;2022-12-07T08:00:31;15.00;42.30
50955;DHT22;36966;48.064;-0.792;2022-12-07T08:02:50;15.00;42.30
50955;DHT22;36966;48.064;-0.792;2022-12-07T08:05:11;15.00;42.30
50955;DHT22;36966;48.064;-0.792;2022-12-07T08:07:30;15.00;42.30
50955;DHT22;36966;48.064;-0.792;2022-12-07T08:09:49;15.00;42.30
50955;DHT22;36966;48.064;-0.792;2022-12-07T08:12:08;15.00;42.30
50955;DHT22;36966;48.064;-0.792;2022-12-07T08:14:28;15.00;42.30
50955;DHT22;36966;48.064;-0.792;2022-12-07T08:16:47;15.00;42.30
50955;DHT22;36966;48.064;-0.792;2022-12-07T08:19:06;15.00;42.30
50955;DHT22;36966;48.064;-0.792;2022-12-07T08:21:26;15.00;42.20
50955;DHT22;36966;48.064;-0.792;2022-12-07T08:23:45;15.00;42.20
50955;DHT22;36966;48.064;-0.792;2022-12-07T08:26:07;15.00;42.20
50955;DHT22;36966;48.064;-0.792;2022-12-07T08:28:27;15.00;42.00
50955;DHT22;36966;48.064;-0.792;2022-12-07T08:30:47;15.00;41.90
50955;DHT22;36966;48.064;-0.792;2022-12-07T08:33:06;15.00;42.00
50955;DHT22;36966;48.064;-0.792;2022-12-07T08:35:25;15.10;41.90
50955;DHT22;36966;48.064;-0.792;2022-12-07T08:37:45;15.00;41.90
50955;DHT22;36966;48.064;-0.792;2022-12-07T08:40:06;15.00;41.90
50955;DHT22;36966;48.064;-0.792;2022-12-07T08:42:25;15.10;41.90
50955;DHT22;36966;48.064;-0.792;2022-12-07T08:44:46;15.10;41.90
50955;DHT22;36966;48.064;-0.792;2022-12-07T08:47:06;15.00;41.90
50955;DHT22;36966;48.064;-0.792;2022-12-07T08:49:47;15.00;42.00
50955;DHT22;36966;48.064;-0.792;2022-12-07T08:52:08;15.10;41.90
50955;DHT22;36966;48.064;-0.792;2022-12-07T08:54:28;15.00;41.90
50955;DHT22;36966;48.064;-0.792;2022-12-07T08:56:49;15.00;41.80
50955;DHT22;36966;48.064;-0.792;2022-12-07T08:59:12;15.10;41.80
50955;DHT22;36966;48.064;-0.792;2022-12-07T09:01:33;15.10;41.80
50955;DHT22;36966;48.064;-0.792;2022-12-07T09:03:52;15.10;41.80
50955;DHT22;36966;48.064;-0.792;2022-12-07T09:06:11;15.10;41.80
50955;DHT22;36966;48.064;-0.792;2022-12-07T09:08:34;15.10;41.80
50955;DHT22;36966;48.064;-0.792;2022-12-07T09:10:54;15.00;41.80
50955;DHT22;36966;48.064;-0.792;2022-12-07T09:13:14;15.10;41.80
50955;DHT22;36966;48.064;-0.792;2022-12-07T09:15:33;15.00;41.80
50955;DHT22;36966;48.064;-0.792;2022-12-07T09:17:52;15.00;41.80
50955;DHT22;36966;48.064;-0.792;2022-12-07T09:20:12;15.10;41.70
50955;DHT22;36966;48.064;-0.792;2022-12-07T09:22:32;15.10;41.70
50955;DHT22;36966;48.064;-0.792;2022-12-07T09:24:51;15.10;41.70
50955;DHT22;36966;48.064;-0.792;2022-12-07T09:27:11;15.10;41.60
50955;DHT22;36966;48.064;-0.792;2022-12-07T09:29:31;15.00;41.60
50955;DHT22;36966;48.064;-0.792;2022-12-07T09:31:50;15.00;41.50
50955;DHT22;36966;48.064;-0.792;2022-12-07T09:34:09;15.10;41.50
50955;DHT22;36966;48.064;-0.792;2022-12-07T09:36:29;15.10;41.50
50955;DHT22;36966;48.064;-0.792;2022-12-07T09:38:48;15.00;41.50
50955;DHT22;36966;48.064;-0.792;2022-12-07T09:41:07;15.10;41.50
50955;DHT22;36966;48.064;-0.792;2022-12-07T09:43:27;15.00;41.50
50955;DHT22;36966;48.064;-0.792;2022-12-07T09:45:48;15.00;41.40
50955;DHT22;36966;48.064;-0.792;2022-12-07T09:48:32;15.00;41.40
50955;DHT22;36966;48.064;-0.792;2022-12-07T09:50:54;15.10;41.40
50955;DHT22;36966;48.064;-0.792;2022-12-07T09:53:36;15.10;41.40
50955;DHT22;36966;48.064;-0.792;2022-12-07T09:55:56;15.10;41.30
50955;DHT22;36966;48.064;-0.792;2022-12-07T09:58:26;15.10;41.30
50955;DHT22;36966;48.064;-0.792;2022-12-07T10:00:46;15.00;41.30
50955;DHT22;36966;48.064;-0.792;2022-12-07T10:03:07;15.00;41.40
50955;DHT22;36966;48.064;-0.792;2022-12-07T10:05:28;15.10;41.40
50955;DHT22;36966;48.064;-0.792;2022-12-07T10:07:49;15.00;41.40
50955;DHT22;36966;48.064;-0.792;2022-12-07T10:10:19;15.10;41.40
50955;DHT22;36966;48.064;-0.792;2022-12-07T10:13:13;15.00;41.30
50955;DHT22;36966;48.064;-0.792;2022-12-07T10:18:37;15.10;41.30
50955;DHT22;36966;48.064;-0.792;2022-12-07T10:21:17;15.10;41.30
50955;DHT22;36966;48.064;-0.792;2022-12-07T10:23:41;15.10;41.30
50955;DHT22;36966;48.064;-0.792;2022-12-07T10:26:35;15.10;41.40
50955;DHT22;36966;48.064;-0.792;2022-12-07T10:28:56;15.00;41.40
50955;DHT22;36966;48.064;-0.792;2022-12-07T10:31:20;15.00;41.30
50955;DHT22;36966;48.064;-0.792;2022-12-07T10:36:41;15.10;41.40
50955;DHT22;36966;48.064;-0.792;2022-12-07T10:39:20;15.10;41.40
50955;DHT22;36966;48.064;-0.792;2022-12-07T10:44:22;15.10;41.40
50955;DHT22;36966;48.064;-0.792;2022-12-07T10:52:03;15.10;41.40
50955;DHT22;36966;48.064;-0.792;2022-12-07T11:03:28;15.10;41.40
50955;DHT22;36966;48.064;-0.792;2022-12-07T11:05:40;15.10;41.40
50955;DHT22;36966;48.064;-0.792;2022-12-07T11:21:23;15.10;41.60
50955;DHT22;36966;48.064;-0.792;2022-12-07T11:31:54;15.20;41.60
50955;DHT22;36966;48.064;-0.792;2022-12-07T11:37:11;15.20;41.70
50955;DHT22;36966;48.064;-0.792;2022-12-07T11:39:38;15.20;41.60
50955;DHT22;36966;48.064;-0.792;2022-12-07T11:42:09;15.20;41.60
50955;DHT22;36966;48.064;-0.792;2022-12-07T11:44:40;15.20;41.60
50955;DHT22;36966;48.064;-0.792;2022-12-07T11:50:33;15.20;41.70
50955;DHT22;36966;48.064;-0.792;2022-12-07T11:55:39;15.30;41.70
50955;DHT22;36966;48.064;-0.792;2022-12-07T12:00:33;15.30;41.70
50955;DHT22;36966;48.064;-0.792;2022-12-07T12:03:12;15.30;41.70
50955;DHT22;36966;48.064;-0.792;2022-12-07T12:05:34;15.30;41.70
50955;DHT22;36966;48.064;-0.792;2022-12-07T12:08:10;15.40;41.70
50955;DHT22;36966;48.064;-0.792;2022-12-07T12:23:22;15.50;41.90
50955;DHT22;36966;48.064;-0.792;2022-12-07T12:25:46;15.50;41.80
50955;DHT22;36966;48.064;-0.792;2022-12-07T12:30:40;15.50;41.90
50955;DHT22;36966;48.064;-0.792;2022-12-07T12:35:40;15.60;41.80
50955;DHT22;36966;48.064;-0.792;2022-12-07T12:46:53;15.70;41.60
50955;DHT22;36966;48.064;-0.792;2022-12-07T12:51:51;15.70;41.60
50955;DHT22;36966;48.064;-0.792;2022-12-07T12:54:35;15.70;41.60
50955;DHT22;36966;48.064;-0.792;2022-12-07T12:57:18;15.70;41.70
50955;DHT22;36966;48.064;-0.792;2022-12-07T12:59:55;15.70;41.80
50955;DHT22;36966;48.064;-0.792;2022-12-07T13:02:30;15.70;41.80
50955;DHT22;36966;48.064;-0.792;2022-12-07T13:04:58;15.70;41.90
50955;DHT22;36966;48.064;-0.792;2022-12-07T13:07:47;15.70;41.90
50955;DHT22;36966;48.064;-0.792;2022-12-07T13:12:43;15.70;42.00
50955;DHT22;36966;48.064;-0.792;2022-12-07T13:15:02;15.60;42.00
50955;DHT22;36966;48.064;-0.792;2022-12-07T13:19:55;15.60;42.00
50955;DHT22;36966;48.064;-0.792;2022-12-07T13:25:18;15.60;42.00
50955;DHT22;36966;48.064;-0.792;2022-12-07T13:27:46;15.60;42.00
50955;DHT22;36966;48.064;-0.792;2022-12-07T13:30:20;15.60;42.00
50955;DHT22;36966;48.064;-0.792;2022-12-07T13:32:39;15.60;42.00
50955;DHT22;36966;48.064;-0.792;2022-12-07T13:34:58;15.50;42.00
50955;DHT22;36966;48.064;-0.792;2022-12-07T13:39:46;15.50;42.10
50955;DHT22;36966;48.064;-0.792;2022-12-07T13:42:27;15.50;42.10
50955;DHT22;36966;48.064;-0.792;2022-12-07T13:44:47;15.50;42.10
50955;DHT22;36966;48.064;-0.792;2022-12-07T13:47:17;15.50;42.20
50955;DHT22;36966;48.064;-0.792;2022-12-07T13:49:46;15.50;42.10
50955;DHT22;36966;48.064;-0.792;2022-12-07T13:52:24;15.50;42.10
50955;DHT22;36966;48.064;-0.792;2022-12-07T13:57:12;15.50;42.10
50955;DHT22;36966;48.064;-0.792;2022-12-07T13:59:31;15.50;42.10
50955;DHT22;36966;48.064;-0.792;2022-12-07T14:01:53;15.50;42.20
50955;DHT22;36966;48.064;-0.792;2022-12-07T14:04:30;15.50;42.20
50955;DHT22;36966;48.064;-0.792;2022-12-07T14:06:51;15.50;42.20
50955;DHT22;36966;48.064;-0.792;2022-12-07T14:09:21;15.50;42.20
50955;DHT22;36966;48.064;-0.792;2022-12-07T14:11:41;15.40;42.20
50955;DHT22;36966;48.064;-0.792;2022-12-07T14:14:02;15.40;42.30
50955;DHT22;36966;48.064;-0.792;2022-12-07T14:16:34;15.40;42.30
50955;DHT22;36966;48.064;-0.792;2022-12-07T14:18:55;15.40;42.40
50955;DHT22;36966;48.064;-0.792;2022-12-07T14:21:17;15.40;42.40
50955;DHT22;36966;48.064;-0.792;2022-12-07T14:23:39;15.40;42.40
50955;DHT22;36966;48.064;-0.792;2022-12-07T14:26:13;15.40;42.40
50955;DHT22;36966;48.064;-0.792;2022-12-07T14:28:35;15.40;42.50
50955;DHT22;36966;48.064;-0.792;2022-12-07T14:30:55;15.40;42.50
50955;DHT22;36966;48.064;-0.792;2022-12-07T14:33:14;15.40;42.50
50955;DHT22;36966;48.064;-0.792;2022-12-07T14:35:33;15.40;42.50
50955;DHT22;36966;48.064;-0.792;2022-12-07T14:37:53;15.40;42.50
50955;DHT22;36966;48.064;-0.792;2022-12-07T14:40:16;15.40;42.50
50955;DHT22;36966;48.064;-0.792;2022-12-07T14:42:36;15.40;42.50
50955;DHT22;36966;48.064;-0.792;2022-12-07T14:44:56;15.40;42.50
50955;DHT22;36966;48.064;-0.792;2022-12-07T14:47:16;15.40;42.60
50955;DHT22;36966;48.064;-0.792;2022-12-07T14:49:35;15.40;42.60
50955;DHT22;36966;48.064;-0.792;2022-12-07T14:51:55;15.40;42.60
50955;DHT22;36966;48.064;-0.792;2022-12-07T14:54:19;15.40;42.60
50955;DHT22;36966;48.064;-0.792;2022-12-07T14:56:39;15.40;42.70
50955;DHT22;36966;48.064;-0.792;2022-12-07T14:58:58;15.40;42.60
50955;DHT22;36966;48.064;-0.792;2022-12-07T15:01:17;15.40;42.70
50955;DHT22;36966;48.064;-0.792;2022-12-07T15:03:36;15.40;42.70
50955;DHT22;36966;48.064;-0.792;2022-12-07T15:05:56;15.40;42.80
50955;DHT22;36966;48.064;-0.792;2022-12-07T15:08:16;15.40;42.80
50955;DHT22;36966;48.064;-0.792;2022-12-07T15:10:36;15.40;42.80
50955;DHT22;36966;48.064;-0.792;2022-12-07T15:12:59;15.40;42.90
50955;DHT22;36966;48.064;-0.792;2022-12-07T15:15:38;15.40;42.90
50955;DHT22;36966;48.064;-0.792;2022-12-07T15:17:57;15.40;42.90
50955;DHT22;36966;48.064;-0.792;2022-12-07T15:20:16;15.40;43.00
50955;DHT22;36966;48.064;-0.792;2022-12-07T15:22:36;15.40;43.00
50955;DHT22;36966;48.064;-0.792;2022-12-07T15:24:55;15.40;43.00
50955;DHT22;36966;48.064;-0.792;2022-12-07T15:27:14;15.30;43.00
50955;DHT22;36966;48.064;-0.792;2022-12-07T15:29:33;15.30;43.20
50955;DHT22;36966;48.064;-0.792;2022-12-07T15:31:53;15.30;43.20
50955;DHT22;36966;48.064;-0.792;2022-12-07T15:34:12;15.30;43.20
50955;DHT22;36966;48.064;-0.792;2022-12-07T15:36:34;15.30;43.20
50955;DHT22;36966;48.064;-0.792;2022-12-07T15:38:55;15.30;43.20
50955;DHT22;36966;48.064;-0.792;2022-12-07T15:41:14;15.30;43.20
50955;DHT22;36966;48.064;-0.792;2022-12-07T15:43:34;15.30;43.20
50955;DHT22;36966;48.064;-0.792;2022-12-07T15:46:14;15.30;43.20
50955;DHT22;36966;48.064;-0.792;2022-12-07T15:48:33;15.30;43.20
50955;DHT22;36966;48.064;-0.792;2022-12-07T15:50:52;15.30;43.30
50955;DHT22;36966;48.064;-0.792;2022-12-07T15:53:11;15.20;43.30
50955;DHT22;36966;48.064;-0.792;2022-12-07T15:55:31;15.20;43.30
50955;DHT22;36966;48.064;-0.792;2022-12-07T15:57:50;15.20;43.30
50955;DHT22;36966;48.064;-0.792;2022-12-07T16:00:10;15.30;43.40
50955;DHT22;36966;48.064;-0.792;2022-12-07T16:02:30;15.20;43.40
50955;DHT22;36966;48.064;-0.792;2022-12-07T16:04:50;15.30;43.40
50955;DHT22;36966;48.064;-0.792;2022-12-07T16:07:09;15.20;43.40
50955;DHT22;36966;48.064;-0.792;2022-12-07T16:09:30;15.20;43.40
50955;DHT22;36966;48.064;-0.792;2022-12-07T16:11:50;15.20;43.40
50955;DHT22;36966;48.064;-0.792;2022-12-07T16:14:09;15.20;43.40
50955;DHT22;36966;48.064;-0.792;2022-12-07T16:16:29;15.20;43.40
50955;DHT22;36966;48.064;-0.792;2022-12-07T16:18:49;15.20;43.40
50955;DHT22;36966;48.064;-0.792;2022-12-07T16:21:09;15.20;43.40
50955;DHT22;36966;48.064;-0.792;2022-12-07T16:23:28;15.20;43.40
50955;DHT22;36966;48.064;-0.792;2022-12-07T16:25:48;15.20;43.40
50955;DHT22;36966;48.064;-0.792;2022-12-07T16:28:07;15.20;43.40
50955;DHT22;36966;48.064;-0.792;2022-12-07T16:30:26;15.20;43.40
50955;DHT22;36966;48.064;-0.792;2022-12-07T16:32:46;15.20;43.40
50955;DHT22;36966;48.064;-0.792;2022-12-07T16:35:05;15.20;43.50
50955;DHT22;36966;48.064;-0.792;2022-12-07T16:37:25;15.20;43.40
50955;DHT22;36966;48.064;-0.792;2022-12-07T16:39:44;15.20;43.40
50955;DHT22;36966;48.064;-0.792;2022-12-07T16:42:03;15.20;43.40
50955;DHT22;36966;48.064;-0.792;2022-12-07T16:44:23;15.20;43.40
50955;DHT22;36966;48.064;-0.792;2022-12-07T16:46:42;15.20;43.40
50955;DHT22;36966;48.064;-0.792;2022-12-07T16:49:02;15.20;43.40
50955;DHT22;36966;48.064;-0.792;2022-12-07T16:51:21;15.20;43.40
50955;DHT22;36966;48.064;-0.792;2022-12-07T16:53:41;15.20;43.40